Time;durP1;ratioP1;P1;durP2;ratioP2;P2;SDS_P1;SDS_P2;PMS_P1;PMS_P2;Temp;Humidity;BMP_temperature;BMP_pressure;BME280_temperature;BME280_humidity;BME280_pressure;Samples;Min_cycle;Max_cycle;Signal;HPM_P1;HPM_P2
2022/03/09 00:01:32;;;;;;;9.25;6.30;;;;;;;2.18;47.87;101991.22;5113262;28;20032;-87
2022/03/09 00:04:03;;;;;;;9.00;6.22;;;;;;;2.19;47.71;101992.94;5113036;28;20052;-87
2022/03/09 00:06:29;;;;;;;8.52;5.93;;;;;;;2.09;47.32;101980.31;5113325;28;20028;-87
2022/03/09 00:08:54;;;;;;;7.85;5.90;;;;;;;2.07;46.87;101986.81;5115208;28;20034;-88
2022/03/09 00:11:29;;;;;;;7.95;5.97;;;;;;;2.08;47.88;101988.47;5112893;28;20027;-88
2022/03/09 00:14:03;;;;;;;8.93;5.53;;;;;;;2.06;47.21;101991.28;5113784;28;20024;-88
2022/03/09 00:16:31;;;;;;;9.77;6.03;;;;;;;2.03;48.09;101988.88;5113619;28;20472;-88
2022/03/09 00:18:57;;;;;;;7.65;6.00;;;;;;;2.11;47.71;102001.59;5113408;28;20463;-87
2022/03/09 00:21:29;;;;;;;8.27;5.85;;;;;;;2.06;48.29;102003.84;5096431;28;20061;-88
2022/03/09 00:24:00;;;;;;;8.02;5.80;;;;;;;2.02;47.30;101997.03;5097990;28;20122;-89
2022/03/09 00:26:30;;;;;;;6.93;5.32;;;;;;;2.00;48.00;102001.69;5096515;28;20395;-88
2022/03/09 00:28:56;;;;;;;7.45;5.28;;;;;;;1.93;49.05;102002.22;5115802;28;20079;-88
2022/03/09 00:31:26;;;;;;;7.15;5.18;;;;;;;2.00;48.21;102007.03;5114682;28;20047;-88
2022/03/09 00:33:52;;;;;;;7.72;5.25;;;;;;;2.01;48.67;102006.03;5114455;28;20053;-88
2022/03/09 00:36:17;;;;;;;9.02;5.65;;;;;;;2.00;48.88;102012.41;5096779;28;20028;-88
2022/03/09 00:38:53;;;;;;;7.53;5.63;;;;;;;1.96;47.92;102006.44;5112563;28;20530;-88
2022/03/09 00:41:18;;;;;;;7.28;5.55;;;;;;;1.88;47.33;102004.41;5098536;28;20383;-88
2022/03/09 00:43:44;;;;;;;7.15;5.60;;;;;;;1.93;47.51;102015.59;5113003;28;20034;-87
2022/03/09 00:46:12;;;;;;;5.82;4.95;;;;;;;1.86;47.36;101995.69;5112951;28;20034;-88
2022/03/09 00:48:38;;;;;;;7.88;5.40;;;;;;;1.92;48.10;102008.53;5112277;28;20471;-87
2022/03/09 00:51:06;;;;;;;8.70;5.45;;;;;;;1.92;47.35;102003.19;5115212;28;20035;-88
2022/03/09 00:53:32;;;;;;;7.68;5.80;;;;;;;1.93;47.54;102010.25;5117814;28;20468;-88
2022/03/09 00:55:57;;;;;;;8.52;5.47;;;;;;;1.88;47.96;102008.94;5099433;28;20039;-87
2022/03/09 00:58:23;;;;;;;7.80;5.10;;;;;;;1.84;47.34;102005.66;5116045;28;20095;-87
2022/03/09 01:00:53;;;;;;;7.53;5.22;;;;;;;1.85;47.24;102011.88;5117168;28;20038;-87
2022/03/09 01:03:19;;;;;;;6.88;5.38;;;;;;;1.77;46.93;101998.28;5116891;28;20031;-88
2022/03/09 01:05:44;;;;;;;6.82;5.10;;;;;;;1.79;47.53;102013.22;5116175;28;20114;-88
2022/03/09 01:08:10;;;;;;;6.93;5.30;;;;;;;1.80;47.81;102014.94;5117159;28;20024;-87
2022/03/09 01:10:35;;;;;;;6.80;5.25;;;;;;;1.71;47.44;101995.16;5115871;28;20535;-88
2022/03/09 01:13:01;;;;;;;7.00;5.13;;;;;;;1.69;47.44;101996.25;5117095;28;20491;-87
2022/03/09 01:15:29;;;;;;;7.35;5.22;;;;;;;1.71;47.65;101999.63;5115634;28;20024;-88
2022/03/09 01:17:57;;;;;;;7.80;5.35;;;;;;;1.74;48.61;102004.72;5116528;28;20027;-87
2022/03/09 01:20:22;;;;;;;8.23;5.30;;;;;;;1.66;48.69;101996.50;5115934;28;20123;-88
2022/03/09 01:22:48;;;;;;;7.75;5.85;;;;;;;1.69;47.76;102004.28;5115721;28;20063;-88
2022/03/09 01:25:16;;;;;;;7.82;5.20;;;;;;;1.58;47.67;102003.34;5115660;28;20149;-87
2022/03/09 01:27:44;;;;;;;5.70;4.97;;;;;;;1.53;47.60;102008.22;5115471;28;20051;-88
2022/03/09 01:30:10;;;;;;;7.18;4.97;;;;;;;1.54;48.56;102001.91;5115826;28;20039;-88
2022/03/09 01:32:39;;;;;;;6.60;5.20;;;;;;;1.50;48.94;102008.47;5116179;28;20035;-88
2022/03/09 01:35:05;;;;;;;6.05;4.90;;;;;;;1.44;48.40;102002.81;5116291;28;20529;-87
2022/03/09 01:37:31;;;;;;;7.60;5.15;;;;;;;1.45;48.26;102007.16;5099569;28;20091;-88
2022/03/09 01:40:04;;;;;;;6.00;4.70;;;;;;;1.45;49.09;102020.53;5115651;28;20467;-88
2022/03/09 01:42:29;;;;;;;6.80;5.07;;;;;;;1.30;49.08;102001.25;5115923;28;20142;-88
2022/03/09 01:45:03;;;;;;;6.65;5.10;;;;;;;1.23;48.98;101995.56;5116455;28;20526;-88
2022/03/09 01:47:39;;;;;;;9.35;4.95;;;;;;;1.19;49.16;101997.63;5115706;28;20523;-88
2022/03/09 01:50:09;;;;;;;6.63;4.80;;;;;;;1.14;50.30;101993.66;5115683;28;20440;-87
2022/03/09 01:52:36;;;;;;;6.90;4.90;;;;;;;1.14;49.66;101994.50;5116720;28;20039;-88
2022/03/09 01:55:05;;;;;;;6.65;5.22;;;;;;;1.13;49.69;101995.47;5115704;28;20031;-88
2022/03/09 01:57:33;;;;;;;7.25;5.13;;;;;;;1.13;49.78;101997.28;5098002;28;20031;-88
2022/03/09 02:00:02;;;;;;;5.95;5.00;;;;;;;1.02;49.84;101987.50;5116139;28;20066;-88
2022/03/09 02:02:28;;;;;;;6.90;5.35;;;;;;;1.02;50.80;101987.50;5115931;28;20028;-88
2022/03/09 02:04:56;;;;;;;6.88;4.85;;;;;;;0.97;51.05;101979.81;5115341;28;20039;-87
2022/03/09 02:10:07;;;;;;;7.32;5.35;;;;;;;1.05;49.70;101990.75;5116376;28;20535;-87
2022/03/09 02:12:33;;;;;;;6.10;4.90;;;;;;;1.01;50.00;101989.28;5097964;28;20049;-87
2022/03/09 02:15:04;;;;;;;8.23;5.70;;;;;;;1.06;48.94;101994.25;5098036;28;20032;-88
2022/03/09 02:17:30;;;;;;;7.82;5.32;;;;;;;1.00;49.92;101987.59;5115364;28;20051;-87
2022/03/09 02:19:57;;;;;;;8.05;6.07;;;;;;;1.01;49.35;101996.47;5115330;28;20027;-88
2022/03/09 02:22:42;;;;;;;7.10;5.28;;;;;;;1.03;49.39;101991.84;5098041;28;20032;-88
2022/03/09 02:25:13;;;;;;;8.65;5.70;;;;;;;0.97;49.26;101990.50;5115228;28;20035;-88
2022/03/09 02:27:40;;;;;;;7.10;4.97;;;;;;;0.91;49.48;101991.00;5114734;28;20402;-88
2022/03/09 02:30:10;;;;;;;9.05;5.40;;;;;;;0.93;49.84;101996.22;5114989;28;20035;-88
2022/03/09 02:32:50;;;;;;;7.13;5.35;;;;;;;0.87;49.37;101992.22;5114889;28;20043;-88
2022/03/09 02:35:23;;;;;;;6.68;4.63;;;;;;;0.84;49.67;101996.03;5114863;28;20055;-88
2022/03/09 02:37:49;;;;;;;7.25;5.03;;;;;;;0.82;50.20;101997.09;5114840;28;20028;-88
2022/03/09 02:40:18;;;;;;;6.00;4.80;;;;;;;0.66;50.24;101984.97;5115141;28;20043;-88
2022/03/09 02:42:44;;;;;;;6.80;4.95;;;;;;;0.61;51.22;101986.31;5115324;28;20038;-88
2022/03/09 02:45:17;;;;;;;5.55;4.65;;;;;;;0.63;52.25;101985.22;5115200;28;20023;-88
2022/03/09 02:47:48;;;;;;;6.38;4.93;;;;;;;0.51;52.33;101971.00;5115319;28;20089;-88
2022/03/09 02:50:20;;;;;;;8.15;5.13;;;;;;;0.55;52.38;101978.78;5115713;28;20032;-88
2022/03/09 02:52:45;;;;;;;6.85;5.10;;;;;;;0.51;50.80;101976.34;5115866;28;20450;-88
2022/03/09 02:55:12;;;;;;;7.15;5.43;;;;;;;0.44;51.17;101961.78;5116525;28;20052;-88
2022/03/09 02:57:46;;;;;;;7.28;4.82;;;;;;;0.49;50.15;101972.13;5115576;28;20020;-88
2022/03/09 03:00:13;;;;;;;6.40;5.07;;;;;;;0.40;50.95;101962.16;5114329;28;20126;-88
2022/03/09 03:02:39;;;;;;;8.10;4.75;;;;;;;0.41;52.03;101963.84;5113753;28;20032;-88
2022/03/09 03:05:06;;;;;;;7.40;5.53;;;;;;;0.40;52.30;101972.81;5114086;28;20055;-87
2022/03/09 03:07:37;;;;;;;7.03;5.15;;;;;;;0.43;49.11;101978.78;5113624;28;20028;-87
2022/03/09 03:10:04;;;;;;;7.93;5.53;;;;;;;0.43;51.65;101983.25;5114745;28;20031;-88
2022/03/09 03:12:30;;;;;;;7.78;5.68;;;;;;;0.33;52.00;101969.81;5113924;28;20076;-87
2022/03/09 03:14:55;;;;;;;7.72;5.30;;;;;;;0.37;51.89;101981.97;5096234;28;20039;-88
2022/03/09 03:17:23;;;;;;;6.68;5.32;;;;;;;0.31;51.93;101971.72;5113920;28;20028;-88
2022/03/09 03:19:51;;;;;;;8.35;5.78;;;;;;;0.31;51.38;101977.94;5113581;28;20055;-88
2022/03/09 03:22:17;;;;;;;8.60;5.72;;;;;;;0.28;51.46;101975.50;5113755;28;20099;-87
2022/03/09 03:24:42;;;;;;;8.25;5.80;;;;;;;0.32;51.28;101979.63;5113663;28;20471;-89
2022/03/09 03:27:08;;;;;;;8.88;6.22;;;;;;;0.30;52.19;101978.06;5113649;28;20165;-88
2022/03/09 03:29:33;;;;;;;9.23;6.03;;;;;;;0.26;53.20;101974.78;5113547;28;20043;-88
2022/03/09 03:31:59;;;;;;;8.63;6.00;;;;;;;0.30;50.23;101975.41;5113404;28;20027;-86
2022/03/09 03:34:28;;;;;;;8.52;6.25;;;;;;;0.30;52.16;101970.06;5114542;28;20023;-87
2022/03/09 03:36:56;;;;;;;8.10;6.00;;;;;;;0.31;50.62;101963.72;5113518;28;20179;-88
2022/03/09 03:39:24;;;;;;;8.60;6.03;;;;;;;0.37;51.70;101979.28;5113117;28;20024;-88
2022/03/09 03:41:49;;;;;;;7.38;5.88;;;;;;;0.25;51.79;101969.53;5096161;28;20071;-87
2022/03/09 03:44:15;;;;;;;9.98;6.15;;;;;;;0.26;51.89;101958.75;5113261;28;20062;-88
2022/03/09 03:46:41;;;;;;;9.93;6.00;;;;;;;0.25;53.28;101959.75;5096595;28;20057;-88
2022/03/09 03:49:06;;;;;;;8.60;6.35;;;;;;;0.30;49.96;101962.88;5113209;28;20038;-88
2022/03/09 03:51:35;;;;;;;8.40;6.18;;;;;;;0.36;51.54;101977.56;5095738;28;20040;-88
2022/03/09 03:54:03;;;;;;;8.80;5.88;;;;;;;0.34;50.70;101971.53;5096582;28;20471;-88
2022/03/09 03:56:36;;;;;;;8.30;5.72;;;;;;;0.31;52.17;101982.41;5112995;28;20024;-88
2022/03/09 03:59:04;;;;;;;;;;;;;;;0.33;49.50;101986.66;5113839;28;20116;-88
2022/03/09 04:01:38;;;;;;;8.02;6.15;;;;;;;0.22;52.33;101970.63;5113309;28;19915;-87
2022/03/09 04:04:04;;;;;;;7.30;5.95;;;;;;;0.19;52.69;101973.53;5114242;28;20083;-87
2022/03/09 04:06:30;;;;;;;8.45;5.88;;;;;;;0.28;52.89;101985.31;5112718;28;20106;-87
2022/03/09 04:08:58;;;;;;;6.93;5.55;;;;;;;0.15;53.57;101970.28;5095982;28;20035;-88
2022/03/09 04:11:28;;;;;;;7.15;5.82;;;;;;;0.18;52.93;101987.88;5112974;28;20038;-87
2022/03/09 04:13:54;;;;;;;7.95;5.43;;;;;;;0.15;53.55;101991.63;5097191;28;20050;-88
2022/03/09 04:16:20;;;;;;;8.55;5.70;;;;;;;0.13;53.57;101990.91;5112750;28;20043;-88
2022/03/09 04:18:47;;;;;;;9.85;6.22;;;;;;;0.10;53.05;101991.13;5112867;28;20077;-88
2022/03/09 04:21:13;;;;;;;9.32;5.80;;;;;;;0.13;52.93;101998.03;5113075;28;20111;-88
2022/03/09 04:23:39;;;;;;;9.30;6.25;;;;;;;0.02;53.58;101972.19;5113923;28;20122;-87
2022/03/09 04:26:10;;;;;;;8.45;5.82;;;;;;;0.10;52.63;101976.94;5114725;28;20057;-88
2022/03/09 04:28:35;;;;;;;8.95;6.65;;;;;;;0.04;53.80;101970.25;5100803;28;20079;-88
2022/03/09 04:31:01;;;;;;;9.65;6.75;;;;;;;0.09;54.21;101972.56;5117390;28;20524;-88
2022/03/09 04:33:27;;;;;;;10.68;6.88;;;;;;;0.12;53.68;101967.84;5117492;28;20113;-88
2022/03/09 04:35:53;;;;;;;7.85;6.13;;;;;;;0.11;54.37;101973.31;5117648;28;20462;-88
2022/03/09 04:38:21;;;;;;;9.15;6.50;;;;;;;0.12;52.94;101975.84;5117500;28;20463;-88
2022/03/09 04:40:46;;;;;;;9.32;6.47;;;;;;;0.06;53.32;101968.34;5117539;28;20031;-88
2022/03/09 04:43:15;;;;;;;10.55;6.35;;;;;;;0.10;53.43;101974.28;5117545;28;20368;-88
2022/03/09 04:45:42;;;;;;;10.02;6.80;;;;;;;0.12;53.36;101972.34;5118481;28;20035;-88
2022/03/09 04:48:08;;;;;;;8.45;6.25;;;;;;;0.12;53.64;101975.84;5116928;28;20020;-88
2022/03/09 04:50:34;;;;;;;11.38;6.65;;;;;;;0.05;52.57;101963.97;5118524;28;20054;-88
2022/03/09 04:53:02;;;;;;;9.50;6.43;;;;;;;-0.01;53.34;101961.75;5117666;28;20441;-88
2022/03/09 04:55:32;;;;;;;10.52;6.55;;;;;;;-0.04;53.65;101954.84;5117169;28;20019;-88
2022/03/09 04:57:58;;;;;;;10.30;6.88;;;;;;;-0.03;53.46;101955.69;5116691;28;20051;-87
2022/03/09 05:00:26;;;;;;;11.27;6.80;;;;;;;0.03;54.23;101971.25;5116525;28;20035;-88
2022/03/09 05:02:53;;;;;;;9.73;6.55;;;;;;;-0.08;54.01;101955.19;5116777;28;20038;-88
2022/03/09 05:05:19;;;;;;;8.15;5.95;;;;;;;-0.07;53.91;101967.59;5117559;28;20475;-88
2022/03/09 05:07:47;;;;;;;8.85;5.72;;;;;;;-0.14;52.31;101963.69;5116334;28;20062;-87
2022/03/09 05:10:13;;;;;;;9.82;6.65;;;;;;;-0.17;54.33;101961.25;5115979;28;20085;-88
2022/03/09 05:12:38;;;;;;;9.07;6.32;;;;;;;-0.11;54.33;101977.63;5117318;28;20027;-88
2022/03/09 05:15:05;;;;;;;8.35;5.68;;;;;;;-0.24;54.20;101966.19;5117050;28;20384;-88
2022/03/09 05:17:37;;;;;;;7.50;5.65;;;;;;;-0.28;54.44;101962.91;5116399;28;20027;-88
2022/03/09 05:20:05;;;;;;;11.45;5.80;;;;;;;-0.25;53.46;101961.81;5117071;28;20035;-87
2022/03/09 05:22:37;;;;;;;9.93;6.38;;;;;;;-0.17;54.84;101974.59;5115883;28;20122;-87
2022/03/09 05:25:03;;;;;;;9.50;6.13;;;;;;;-0.17;52.01;101966.59;5115339;28;20027;-87
2022/03/09 05:27:36;;;;;;;10.35;6.22;;;;;;;-0.24;53.65;101963.53;5116080;28;20034;-87
2022/03/09 05:30:10;;;;;;;8.40;6.13;;;;;;;-0.19;53.26;101974.72;5115689;28;20122;-88
2022/03/09 05:32:45;;;;;;;8.02;5.93;;;;;;;-0.26;53.12;101962.81;5116569;28;20028;-88
2022/03/09 05:35:13;;;;;;;7.75;5.85;;;;;;;-0.23;54.53;101973.25;5117658;28;20046;-87
2022/03/09 05:37:48;;;;;;;8.15;5.60;;;;;;;-0.31;53.34;101973.81;5098720;28;20024;-88
2022/03/09 05:40:16;;;;;;;9.23;6.00;;;;;;;-0.31;54.30;101981.84;5116074;28;20035;-89
2022/03/09 05:42:43;;;;;;;9.07;5.40;;;;;;;-0.33;53.06;101977.56;5116761;27;20027;-88
2022/03/09 05:45:10;;;;;;;8.95;6.45;;;;;;;-0.34;53.93;101963.38;5115502;28;20028;-88
2022/03/09 05:47:35;;;;;;;8.90;5.95;;;;;;;-0.30;53.88;101986.19;5117264;28;20016;-88
2022/03/09 05:50:04;;;;;;;9.52;6.05;;;;;;;-0.34;54.43;101981.19;5116072;28;20028;-88
2022/03/09 05:52:38;;;;;;;8.50;5.70;;;;;;;-0.38;53.36;101977.94;5115417;28;20028;-87
2022/03/09 05:55:04;;;;;;;7.65;5.50;;;;;;;-0.28;54.96;102005.59;5115653;28;20471;-88
2022/03/09 05:57:30;;;;;;;9.98;5.95;;;;;;;-0.34;54.80;102003.38;5115605;28;20548;-88
2022/03/09 06:00:06;;;;;;;7.53;5.40;;;;;;;-0.32;55.65;102013.94;5097974;28;20056;-87
2022/03/09 06:02:31;;;;;;;8.23;5.82;;;;;;;-0.36;55.21;102016.81;5115312;28;20032;-88
2022/03/09 06:04:59;;;;;;;6.93;5.43;;;;;;;-0.45;56.13;102008.69;5115467;28;20042;-89
2022/03/09 06:07:35;;;;;;;;;;;;;;;;;;;;;
2022/03/09 06:10:01;;;;;;;10.60;5.88;;;;;;;-0.46;55.10;102023.81;5117644;28;20028;-90
2022/03/09 06:12:32;;;;;;;8.85;5.80;;;;;;;-0.47;55.21;102019.47;5115774;28;20114;-90
2022/03/09 06:15:00;;;;;;;8.88;5.57;;;;;;;-0.49;56.47;102017.88;5116963;28;20050;-90
2022/03/09 06:17:29;;;;;;;8.75;6.18;;;;;;;-0.42;56.08;102021.78;5099407;28;20130;-89
2022/03/09 06:19:57;;;;;;;8.93;5.90;;;;;;;-0.41;55.16;102023.50;5115245;28;20062;-91
2022/03/09 06:22:23;;;;;;;9.80;5.80;;;;;;;-0.46;55.69;102021.13;5097995;28;20036;-90
2022/03/09 06:24:49;;;;;;;9.40;5.78;;;;;;;-0.40;56.07;102028.72;5115220;28;20028;-83
2022/03/09 06:27:14;;;;;;;9.52;5.88;;;;;;;-0.44;56.46;102024.56;5097479;28;20055;-83
2022/03/09 06:29:39;;;;;;;8.88;5.22;;;;;;;-0.46;56.43;102014.97;5097166;28;20052;-84
2022/03/09 06:32:08;;;;;;;7.43;5.70;;;;;;;-0.47;57.81;102018.59;5113556;28;20538;-83
2022/03/09 06:34:34;;;;;;;8.65;5.88;;;;;;;-0.36;58.77;102043.50;5114758;28;20042;-84
2022/03/09 06:36:59;;;;;;;8.77;5.40;;;;;;;-0.36;57.73;102034.66;5097979;28;20035;-83
2022/03/09 06:39:25;;;;;;;7.95;5.63;;;;;;;-0.40;57.94;102027.84;5113788;28;20031;-84
2022/03/09 06:41:51;;;;;;;7.93;5.75;;;;;;;-0.36;56.30;102031.97;5115291;28;20031;-90
2022/03/09 06:44:19;;;;;;;7.65;5.38;;;;;;;-0.32;56.34;102030.78;5116837;28;20028;-89
2022/03/09 06:46:47;;;;;;;9.25;6.43;;;;;;;-0.19;55.40;102052.91;5098272;28;20028;-89
2022/03/09 06:49:13;;;;;;;8.13;5.50;;;;;;;-0.11;55.84;102062.16;5115880;28;20157;-90
2022/03/09 06:51:39;;;;;;;8.00;5.30;;;;;;;-0.13;55.69;102056.06;5115864;28;20051;-91
2022/03/09 06:54:04;;;;;;;8.45;5.78;;;;;;;-0.08;56.14;102062.75;5114843;28;20032;-89
2022/03/09 06:56:30;;;;;;;7.88;5.47;;;;;;;-0.09;56.27;102061.09;5114669;28;20081;-90
2022/03/09 06:59:03;;;;;;;11.38;6.50;;;;;;;0.07;54.52;102074.09;5115094;28;20034;-89
2022/03/09 07:01:35;;;;;;;10.90;6.13;;;;;;;0.13;55.51;102072.78;5116181;28;20065;-89
2022/03/09 07:04:00;;;;;;;8.02;5.80;;;;;;;0.12;55.32;102068.44;5114924;28;20027;-90
2022/03/09 07:06:27;;;;;;;9.95;6.10;;;;;;;0.17;54.86;102066.25;5116550;28;20415;-92
2022/03/09 07:08:52;;;;;;;8.77;6.20;;;;;;;0.23;55.46;102070.28;5116565;28;20469;-91
2022/03/09 07:11:21;;;;;;;10.70;6.05;;;;;;;0.26;55.92;102070.88;5115749;28;20415;-90
2022/03/09 07:13:46;;;;;;;10.00;6.40;;;;;;;0.34;53.83;102062.28;5098533;28;20395;-88
2022/03/09 07:16:12;;;;;;;9.98;6.55;;;;;;;0.51;53.56;102082.34;5113986;28;20459;-89
2022/03/09 07:18:37;;;;;;;8.90;5.72;;;;;;;0.50;54.47;102075.28;5097357;28;20475;-89
2022/03/09 07:21:03;;;;;;;9.38;6.20;;;;;;;0.55;53.88;102072.25;5097721;28;20436;-89
2022/03/09 07:23:29;;;;;;;9.48;6.70;;;;;;;0.69;53.99;102075.56;5114090;28;20039;-89
2022/03/09 07:25:57;;;;;;;9.18;6.28;;;;;;;0.80;53.12;102077.38;5114674;28;20383;-89
2022/03/09 07:28:24;;;;;;;9.95;6.85;;;;;;;0.83;53.01;102057.59;5115907;28;20055;-89
2022/03/09 07:30:53;;;;;;;11.68;7.13;;;;;;;0.98;52.57;102066.22;5115991;28;20039;-89
2022/03/09 07:33:24;;;;;;;9.95;6.40;;;;;;;1.10;52.45;102072.41;5114381;28;20070;-89
2022/03/09 07:35:52;;;;;;;8.63;5.90;;;;;;;1.12;52.80;102057.06;5113749;28;20020;-88
2022/03/09 07:38:20;;;;;;;8.43;6.00;;;;;;;1.29;51.80;102071.78;5114266;28;20020;-88
2022/03/09 07:41:06;;;;;;;9.18;6.20;;;;;;;1.33;51.15;102059.81;5115229;28;20490;-89
2022/03/09 07:43:31;;;;;;;10.82;7.57;;;;;;;1.48;50.41;102055.91;5115337;28;20106;-90
2022/03/09 07:46:00;;;;;;;11.93;7.32;;;;;;;1.65;50.46;102065.19;5113698;28;20051;-89
2022/03/09 07:48:33;;;;;;;12.32;7.40;;;;;;;1.69;50.28;102053.28;5114774;28;20042;-89
2022/03/09 07:51:01;;;;;;;11.95;7.07;;;;;;;1.80;49.43;102060.44;5114819;28;20460;-90
2022/03/09 07:53:26;;;;;;;10.90;6.65;;;;;;;1.89;49.89;102061.47;5114965;28;20042;-89
2022/03/09 07:55:54;;;;;;;11.00;7.60;;;;;;;2.03;48.73;102066.50;5113822;28;20028;-89
2022/03/09 07:58:20;;;;;;;11.30;6.82;;;;;;;2.17;48.70;102065.38;5113644;28;20024;-90
2022/03/09 08:00:50;;;;;;;9.55;7.00;;;;;;;2.19;48.44;102052.69;5112726;28;20024;-89
2022/03/09 08:03:20;;;;;;;10.65;7.20;;;;;;;2.38;48.35;102078.75;5114726;28;20089;-90
2022/03/09 08:05:48;;;;;;;9.40;6.45;;;;;;;2.45;47.89;102068.34;5114262;28;20031;-90
2022/03/09 08:08:17;;;;;;;9.40;6.20;;;;;;;2.57;48.05;102079.81;5114460;28;20074;-89
2022/03/09 08:10:42;;;;;;;11.93;7.45;;;;;;;2.58;47.55;102076.16;5097128;28;20437;-89
2022/03/09 08:13:17;;;;;;;9.82;6.63;;;;;;;2.75;47.42;102083.59;5112991;28;20027;-90
2022/03/09 08:15:45;;;;;;;12.23;7.18;;;;;;;2.85;47.03;102089.03;5096850;28;20028;-90
2022/03/09 08:18:13;;;;;;;10.90;7.07;;;;;;;2.88;47.24;102079.84;5113367;28;20027;-89
2022/03/09 08:20:39;;;;;;;10.05;7.50;;;;;;;2.98;46.26;102086.97;5113678;28;20031;-89
2022/03/09 08:23:11;;;;;;;12.10;8.00;;;;;;;3.16;46.18;102092.53;5113372;28;20034;-89
2022/03/09 08:25:37;;;;;;;12.25;7.85;;;;;;;3.24;45.63;102081.09;5114775;28;20085;-92
2022/03/09 08:28:08;;;;;;;13.23;8.27;;;;;;;3.33;45.97;102082.94;5113657;28;20425;-91
2022/03/09 08:30:35;;;;;;;12.65;7.97;;;;;;;3.38;45.79;102079.00;5113609;28;20513;-91
2022/03/09 08:33:00;;;;;;;12.60;7.85;;;;;;;3.43;45.92;102074.94;5114590;28;20036;-90
2022/03/09 08:35:26;;;;;;;15.68;8.82;;;;;;;3.50;45.17;102083.28;5114688;28;20084;-89
2022/03/09 08:37:51;;;;;;;11.65;7.70;;;;;;;3.62;45.14;102084.84;5113135;28;20027;-88
2022/03/09 08:40:17;;;;;;;10.60;7.47;;;;;;;3.68;45.36;102089.66;5112865;28;20038;-89
2022/03/09 08:42:46;;;;;;;11.25;7.40;;;;;;;3.73;44.92;102091.91;5115295;28;20035;-89
2022/03/09 08:45:14;;;;;;;14.13;7.43;;;;;;;3.76;44.71;102083.59;5096930;28;20038;-88
2022/03/09 08:47:45;;;;;;;11.82;7.40;;;;;;;3.85;44.95;102088.13;5114685;28;20067;-89
2022/03/09 08:50:17;;;;;;;11.32;7.50;;;;;;;3.92;44.55;102082.19;5098196;28;20460;-88
2022/03/09 08:52:45;;;;;;;12.38;8.23;;;;;;;4.00;44.58;102095.75;5120233;28;20055;-91
2022/03/09 08:55:14;;;;;;;10.02;7.03;;;;;;;4.09;44.62;102091.38;5125237;28;20057;-89
2022/03/09 08:57:41;;;;;;;12.30;7.70;;;;;;;4.17;44.50;102086.16;5124015;28;20423;-87
2022/03/09 09:00:07;;;;;;;11.90;8.18;;;;;;;4.32;44.11;102106.19;5088296;28;20051;-90
2022/03/09 09:02:37;;;;;;;11.73;7.68;;;;;;;4.34;44.01;102093.47;5123488;28;20028;-95
2022/03/09 09:05:05;;;;;;;11.68;7.75;;;;;;;4.47;44.04;102101.22;5101965;28;20491;-90
2022/03/09 09:07:39;;;;;;;13.70;7.85;;;;;;;4.50;43.80;102092.88;5126047;28;20035;-90
2022/03/09 09:10:08;;;;;;;13.35;8.30;;;;;;;4.66;43.01;102097.63;5120822;28;20035;-89
2022/03/09 09:12:36;;;;;;;12.27;7.55;;;;;;;4.78;43.18;102102.84;5122755;28;20098;-89
2022/03/09 09:15:06;;;;;;;11.80;7.68;;;;;;;4.75;43.30;102079.78;5119998;28;20027;-90
2022/03/09 09:17:37;;;;;;;15.20;9.02;;;;;;;4.90;42.85;102083.72;5117544;28;20413;-90
2022/03/09 09:20:09;;;;;;;11.82;7.72;;;;;;;4.96;43.38;102067.97;5099909;28;20054;-91
2022/03/09 09:22:44;;;;;;;11.65;7.85;;;;;;;5.10;42.88;102076.38;5116981;28;20031;-91
2022/03/09 09:25:18;;;;;;;13.38;7.80;;;;;;;5.18;42.60;102081.03;5099393;28;20498;-90
2022/03/09 09:27:52;;;;;;;12.13;8.20;;;;;;;5.27;42.65;102080.13;5116862;28;20031;-91
2022/03/09 09:30:30;;;;;;;13.25;8.40;;;;;;;5.31;42.40;102079.81;5116522;28;20058;-90
2022/03/09 09:32:59;;;;;;;10.80;7.50;;;;;;;5.41;42.64;102076.06;5117003;28;20035;-90
2022/03/09 09:35:30;;;;;;;12.70;8.45;;;;;;;5.51;42.89;102083.25;5116849;28;20066;-90
2022/03/09 09:38:06;;;;;;;;;;;;;;;;;;;;;
2022/03/09 09:40:45;;;;;;;11.23;7.40;;;;;;;5.75;42.53;102091.56;5119571;28;20439;-90
2022/03/09 09:43:15;;;;;;;12.93;7.93;;;;;;;5.80;42.12;102075.81;5118483;28;20050;-90
2022/03/09 09:45:42;;;;;;;13.98;8.52;;;;;;;5.99;41.99;102100.91;5119345;28;20030;-90
2022/03/09 09:48:12;;;;;;;12.15;8.38;;;;;;;6.00;41.88;102080.22;5117221;28;20035;-90
2022/03/09 09:50:42;;;;;;;14.40;8.13;;;;;;;6.11;41.78;102074.56;5118628;28;20379;-90
2022/03/09 09:53:24;;;;;;;12.90;8.10;;;;;;;6.26;41.53;102077.56;5120641;28;20130;-90
2022/03/09 09:55:53;;;;;;;12.87;8.03;;;;;;;6.44;41.64;102093.72;5119359;28;20357;-90
2022/03/09 09:58:20;;;;;;;12.10;7.57;;;;;;;6.53;41.74;102087.38;5120605;28;20285;-91
2022/03/09 10:00:46;;;;;;;14.50;8.57;;;;;;;6.63;41.37;102079.19;5116320;28;20106;-91
2022/03/09 10:03:11;;;;;;;14.40;8.00;;;;;;;6.83;41.17;102086.03;5116362;28;20047;-89
2022/03/09 10:05:43;;;;;;;12.50;8.10;;;;;;;6.93;41.09;102083.22;5117437;28;20034;-89
2022/03/09 10:08:17;;;;;;;14.82;9.13;;;;;;;7.07;40.89;102078.22;5116261;28;20035;-90
2022/03/09 10:10:59;;;;;;;13.02;8.10;;;;;;;7.20;40.53;102074.06;5116223;28;20118;-91
2022/03/09 10:13:32;;;;;;;11.53;7.83;;;;;;;7.44;40.79;102087.78;5115915;28;20031;-92
2022/03/09 10:16:21;;;;;;;14.15;7.93;;;;;;;7.53;40.77;102078.72;5116007;28;20020;-93
2022/03/09 10:18:55;;;;;;;14.80;8.45;;;;;;;7.66;40.85;102072.81;5116229;28;20028;-93
2022/03/09 10:21:29;;;;;;;13.65;8.20;;;;;;;7.84;41.23;102076.25;5116079;28;20035;-93
2022/03/09 10:23:57;;;;;;;11.75;8.02;;;;;;;7.98;40.41;102060.38;5115298;28;20467;-91
2022/03/09 10:26:43;;;;;;;13.45;8.25;;;;;;;8.12;39.86;102065.13;5116437;28;20050;-92
2022/03/09 10:29:21;;;;;;;13.00;8.25;;;;;;;8.34;39.15;102054.59;5115731;28;20051;-92
2022/03/09 10:32:01;;;;;;;;;;;;;;;;;;;;;
2022/03/09 10:34:30;;;;;;;14.73;8.05;;;;;;;8.63;38.47;102053.25;5117046;28;20375;-92
2022/03/09 10:36:59;;;;;;;14.02;8.02;;;;;;;8.85;38.40;102066.03;5116628;28;20027;-91
2022/03/09 10:39:44;;;;;;;13.40;8.55;;;;;;;9.00;38.33;102054.47;5116384;28;20035;-92
2022/03/09 10:42:26;;;;;;;15.48;9.30;;;;;;;9.16;37.65;102048.97;5116373;28;20123;-94
2022/03/09 10:44:55;;;;;;;15.13;9.63;;;;;;;9.30;37.48;102047.38;5115941;28;20020;-94
2022/03/09 10:47:40;;;;;;;15.48;9.02;;;;;;;9.54;37.71;102065.38;5116451;28;20027;-95
2022/03/09 10:50:13;;;;;;;15.27;9.70;;;;;;;9.73;37.17;102060.50;5115314;28;20035;-91
2022/03/09 10:52:42;;;;;;;14.38;9.20;;;;;;;9.99;37.95;102069.13;5114784;28;20081;-82
2022/03/09 10:55:26;;;;;;;13.02;8.60;;;;;;;10.22;38.07;102059.28;5114360;28;20035;-90
2022/03/09 10:58:20;;;;;;;16.17;9.70;;;;;;;10.39;37.31;102065.41;5115585;28;20024;-90
2022/03/09 11:00:58;;;;;;;15.13;9.35;;;;;;;10.51;36.83;102058.50;5114778;28;20478;-89
2022/03/09 11:03:28;;;;;;;13.65;8.82;;;;;;;10.64;36.76;102053.28;5115525;28;20043;-90
2022/03/09 11:06:02;;;;;;;15.27;9.05;;;;;;;10.88;36.73;102060.31;5115088;28;20051;-90
2022/03/09 11:08:29;;;;;;;13.82;9.13;;;;;;;11.10;36.21;102071.25;5114354;28;20044;-90
2022/03/09 11:10:55;;;;;;;14.07;8.25;;;;;;;11.27;36.85;102062.91;5114292;28;20039;-90
2022/03/09 11:13:30;;;;;;;14.10;8.55;;;;;;;11.39;34.95;102051.31;5114260;28;20077;-90
2022/03/09 11:15:57;;;;;;;16.52;9.63;;;;;;;11.70;35.45;102054.81;5114232;28;20434;-91
2022/03/09 11:18:28;;;;;;;16.23;10.02;;;;;;;11.90;34.83;102042.25;5115261;28;20034;-90
2022/03/09 11:20:58;;;;;;;13.90;9.63;;;;;;;12.22;34.81;102031.03;5115048;28;20506;-90
2022/03/09 11:23:34;;;;;;;12.93;8.27;;;;;;;13.37;34.25;102026.00;5117510;28;20100;-90
2022/03/09 11:26:23;;;;;;;14.07;8.77;;;;;;;17.05;30.48;102018.00;5113954;28;20459;-90
2022/03/09 11:28:59;;;;;;;15.93;9.02;;;;;;;20.28;26.77;102021.56;5113938;28;20549;-90
2022/03/09 11:31:42;;;;;;;17.50;10.10;;;;;;;22.60;24.00;102019.34;5115283;28;20062;-90
2022/03/09 11:34:47;;;;;;;15.70;10.20;;;;;;;24.98;22.52;102020.31;5114767;28;20062;-90
2022/03/09 11:37:24;;;;;;;15.00;9.48;;;;;;;26.94;17.71;102003.66;5031863;28;20029;-90
2022/03/09 11:40:10;;;;;;;14.75;9.45;;;;;;;28.66;19.12;102003.34;5015859;28;20481;-89
2022/03/09 11:42:41;;;;;;;15.95;10.52;;;;;;;29.71;15.53;101999.56;5099033;27;20035;-89
2022/03/09 11:45:29;;;;;;;17.10;11.75;;;;;;;30.38;16.00;101999.78;5114464;28;20051;-90